sensor_id;sensor_type;location;lat;lon;timestamp;P1;durP1;ratioP1;P2;durP2;ratioP2
77978;SDS011;67169;50.268;8.694;2023-12-28T00:01:07;3.88;;;2.72;;
77978;SDS011;67169;50.268;8.694;2023-12-28T00:03:35;7.68;;;3.75;;
77978;SDS011;67169;50.268;8.694;2023-12-28T00:06:02;5.75;;;3.40;;
77978;SDS011;67169;50.268;8.694;2023-12-28T00:08:29;7.07;;;3.13;;
77978;SDS011;67169;50.268;8.694;2023-12-28T00:10:57;3.10;;;2.17;;
77978;SDS011;67169;50.268;8.694;2023-12-28T00:13:24;8.20;;;3.13;;
77978;SDS011;67169;50.268;8.694;2023-12-28T00:15:50;5.60;;;2.97;;
77978;SDS011;67169;50.268;8.694;2023-12-28T00:18:17;3.40;;;2.55;;
77978;SDS011;67169;50.268;8.694;2023-12-28T00:20:45;5.72;;;2.38;;
77978;SDS011;67169;50.268;8.694;2023-12-28T00:23:11;4.22;;;2.92;;
77978;SDS011;67169;50.268;8.694;2023-12-28T00:25:38;2.83;;;2.30;;
77978;SDS011;67169;50.268;8.694;2023-12-28T00:28:04;5.38;;;3.33;;
77978;SDS011;67169;50.268;8.694;2023-12-28T00:30:31;4.30;;;3.58;;
77978;SDS011;67169;50.268;8.694;2023-12-28T00:32:58;2.97;;;2.22;;
77978;SDS011;67169;50.268;8.694;2023-12-28T00:35:25;5.13;;;3.33;;
77978;SDS011;67169;50.268;8.694;2023-12-28T00:37:53;6.03;;;4.00;;
77978;SDS011;67169;50.268;8.694;2023-12-28T00:40:19;4.40;;;2.20;;
77978;SDS011;67169;50.268;8.694;2023-12-28T00:42:47;3.50;;;2.33;;
77978;SDS011;67169;50.268;8.694;2023-12-28T00:45:13;6.60;;;3.25;;
77978;SDS011;67169;50.268;8.694;2023-12-28T00:47:40;2.97;;;2.28;;
77978;SDS011;67169;50.268;8.694;2023-12-28T00:50:08;6.13;;;2.85;;
77978;SDS011;67169;50.268;8.694;2023-12-28T00:52:36;5.97;;;2.55;;
77978;SDS011;67169;50.268;8.694;2023-12-28T00:55:05;3.50;;;2.65;;
77978;SDS011;67169;50.268;8.694;2023-12-28T00:57:32;3.15;;;2.45;;
77978;SDS011;67169;50.268;8.694;2023-12-28T00:59:59;6.63;;;2.47;;
77978;SDS011;67169;50.268;8.694;2023-12-28T01:02:26;4.18;;;2.33;;
77978;SDS011;67169;50.268;8.694;2023-12-28T01:04:53;2.08;;;1.73;;
77978;SDS011;67169;50.268;8.694;2023-12-28T01:07:20;10.05;;;2.90;;
77978;SDS011;67169;50.268;8.694;2023-12-28T01:09:46;9.88;;;3.85;;
77978;SDS011;67169;50.268;8.694;2023-12-28T01:12:14;4.43;;;3.45;;
77978;SDS011;67169;50.268;8.694;2023-12-28T01:14:41;3.35;;;2.47;;
77978;SDS011;67169;50.268;8.694;2023-12-28T01:17:07;3.65;;;2.65;;
77978;SDS011;67169;50.268;8.694;2023-12-28T01:19:34;2.95;;;2.08;;
77978;SDS011;67169;50.268;8.694;2023-12-28T01:22:00;5.28;;;2.83;;
77978;SDS011;67169;50.268;8.694;2023-12-28T01:24:27;6.32;;;3.50;;
77978;SDS011;67169;50.268;8.694;2023-12-28T01:26:54;5.40;;;2.60;;
77978;SDS011;67169;50.268;8.694;2023-12-28T01:29:22;5.13;;;3.17;;
77978;SDS011;67169;50.268;8.694;2023-12-28T01:31:49;5.03;;;2.97;;
77978;SDS011;67169;50.268;8.694;2023-12-28T01:34:15;3.40;;;2.08;;
77978;SDS011;67169;50.268;8.694;2023-12-28T01:36:42;2.15;;;1.42;;
77978;SDS011;67169;50.268;8.694;2023-12-28T01:39:09;3.92;;;2.40;;
77978;SDS011;67169;50.268;8.694;2023-12-28T01:41:36;5.18;;;2.42;;
77978;SDS011;67169;50.268;8.694;2023-12-28T01:44:03;3.05;;;2.08;;
77978;SDS011;67169;50.268;8.694;2023-12-28T01:46:31;8.52;;;2.42;;
77978;SDS011;67169;50.268;8.694;2023-12-28T01:48:59;6.15;;;3.72;;
77978;SDS011;67169;50.268;8.694;2023-12-28T01:51:26;4.90;;;2.97;;
77978;SDS011;67169;50.268;8.694;2023-12-28T01:53:54;4.68;;;2.85;;
77978;SDS011;67169;50.268;8.694;2023-12-28T01:56:21;3.75;;;2.63;;
77978;SDS011;67169;50.268;8.694;2023-12-28T01:58:49;7.55;;;2.25;;
77978;SDS011;67169;50.268;8.694;2023-12-28T02:01:17;3.22;;;2.38;;
77978;SDS011;67169;50.268;8.694;2023-12-28T02:03:45;5.88;;;2.80;;
77978;SDS011;67169;50.268;8.694;2023-12-28T02:06:13;3.30;;;1.75;;
77978;SDS011;67169;50.268;8.694;2023-12-28T02:08:41;4.05;;;1.85;;
77978;SDS011;67169;50.268;8.694;2023-12-28T02:11:07;4.43;;;2.35;;
77978;SDS011;67169;50.268;8.694;2023-12-28T02:13:34;2.20;;;1.48;;
77978;SDS011;67169;50.268;8.694;2023-12-28T02:16:02;4.13;;;2.75;;
77978;SDS011;67169;50.268;8.694;2023-12-28T02:18:34;2.95;;;2.40;;
77978;SDS011;67169;50.268;8.694;2023-12-28T02:21:07;3.25;;;2.10;;
77978;SDS011;67169;50.268;8.694;2023-12-28T02:23:34;4.30;;;1.92;;
77978;SDS011;67169;50.268;8.694;2023-12-28T02:26:02;5.10;;;2.08;;
77978;SDS011;67169;50.268;8.694;2023-12-28T02:28:29;2.72;;;2.00;;
77978;SDS011;67169;50.268;8.694;2023-12-28T02:30:56;2.50;;;2.00;;
77978;SDS011;67169;50.268;8.694;2023-12-28T02:33:26;2.00;;;1.67;;
77978;SDS011;67169;50.268;8.694;2023-12-28T02:36:01;3.60;;;2.05;;
77978;SDS011;67169;50.268;8.694;2023-12-28T02:38:30;4.78;;;1.92;;
77978;SDS011;67169;50.268;8.694;2023-12-28T02:40:59;4.43;;;1.95;;
77978;SDS011;67169;50.268;8.694;2023-12-28T02:43:28;2.55;;;1.73;;
77978;SDS011;67169;50.268;8.694;2023-12-28T02:45:55;3.83;;;2.20;;
77978;SDS011;67169;50.268;8.694;2023-12-28T02:48:21;2.67;;;1.92;;
77978;SDS011;67169;50.268;8.694;2023-12-28T02:50:48;3.72;;;2.13;;
77978;SDS011;67169;50.268;8.694;2023-12-28T02:53:14;3.67;;;2.75;;
77978;SDS011;67169;50.268;8.694;2023-12-28T02:55:41;2.83;;;1.67;;
77978;SDS011;67169;50.268;8.694;2023-12-28T02:58:07;3.15;;;2.03;;
77978;SDS011;67169;50.268;8.694;2023-12-28T03:00:35;2.42;;;1.92;;
77978;SDS011;67169;50.268;8.694;2023-12-28T03:03:02;4.55;;;1.30;;
77978;SDS011;67169;50.268;8.694;2023-12-28T03:05:29;3.30;;;2.50;;
77978;SDS011;67169;50.268;8.694;2023-12-28T03:07:56;2.70;;;2.20;;
77978;SDS011;67169;50.268;8.694;2023-12-28T03:10:23;2.45;;;1.67;;
77978;SDS011;67169;50.268;8.694;2023-12-28T03:12:49;3.10;;;2.75;;
77978;SDS011;67169;50.268;8.694;2023-12-28T03:15:16;3.63;;;2.03;;
77978;SDS011;67169;50.268;8.694;2023-12-28T03:17:44;3.22;;;1.63;;
77978;SDS011;67169;50.268;8.694;2023-12-28T03:20:11;1.88;;;1.17;;
77978;SDS011;67169;50.268;8.694;2023-12-28T03:22:37;5.13;;;1.40;;
77978;SDS011;67169;50.268;8.694;2023-12-28T03:25:04;2.50;;;1.98;;
77978;SDS011;67169;50.268;8.694;2023-12-28T03:27:31;5.38;;;2.88;;
77978;SDS011;67169;50.268;8.694;2023-12-28T03:29:58;5.07;;;2.03;;
77978;SDS011;67169;50.268;8.694;2023-12-28T03:32:24;7.88;;;1.95;;
77978;SDS011;67169;50.268;8.694;2023-12-28T03:34:52;3.25;;;1.98;;
77978;SDS011;67169;50.268;8.694;2023-12-28T03:37:19;4.50;;;2.25;;
77978;SDS011;67169;50.268;8.694;2023-12-28T03:39:45;3.45;;;2.00;;
77978;SDS011;67169;50.268;8.694;2023-12-28T03:42:13;4.57;;;2.38;;
77978;SDS011;67169;50.268;8.694;2023-12-28T03:44:40;2.55;;;1.85;;
77978;SDS011;67169;50.268;8.694;2023-12-28T03:47:06;4.43;;;2.63;;
77978;SDS011;67169;50.268;8.694;2023-12-28T03:49:33;3.78;;;2.17;;
77978;SDS011;67169;50.268;8.694;2023-12-28T03:52:01;3.25;;;2.08;;
77978;SDS011;67169;50.268;8.694;2023-12-28T03:54:28;3.05;;;2.03;;
77978;SDS011;67169;50.268;8.694;2023-12-28T03:56:55;2.33;;;1.40;;
77978;SDS011;67169;50.268;8.694;2023-12-28T03:59:22;3.80;;;2.78;;
77978;SDS011;67169;50.268;8.694;2023-12-28T04:01:49;1.92;;;1.60;;
77978;SDS011;67169;50.268;8.694;2023-12-28T04:04:15;5.13;;;2.28;;
77978;SDS011;67169;50.268;8.694;2023-12-28T04:06:42;4.10;;;2.50;;
77978;SDS011;67169;50.268;8.694;2023-12-28T04:09:12;2.65;;;1.65;;
77978;SDS011;67169;50.268;8.694;2023-12-28T04:11:39;5.95;;;2.25;;
77978;SDS011;67169;50.268;8.694;2023-12-28T04:14:05;2.33;;;2.00;;
77978;SDS011;67169;50.268;8.694;2023-12-28T04:16:32;3.88;;;2.78;;
77978;SDS011;67169;50.268;8.694;2023-12-28T04:18:59;5.68;;;2.92;;
77978;SDS011;67169;50.268;8.694;2023-12-28T04:21:25;2.50;;;1.85;;
77978;SDS011;67169;50.268;8.694;2023-12-28T04:23:52;4.18;;;2.10;;
77978;SDS011;67169;50.268;8.694;2023-12-28T04:26:20;2.65;;;2.10;;
77978;SDS011;67169;50.268;8.694;2023-12-28T04:28:46;3.47;;;2.33;;
77978;SDS011;67169;50.268;8.694;2023-12-28T04:31:13;3.40;;;2.15;;
77978;SDS011;67169;50.268;8.694;2023-12-28T04:33:39;2.83;;;2.13;;
77978;SDS011;67169;50.268;8.694;2023-12-28T04:36:06;2.78;;;1.90;;
77978;SDS011;67169;50.268;8.694;2023-12-28T04:38:33;4.25;;;2.00;;
77978;SDS011;67169;50.268;8.694;2023-12-28T04:41:00;2.95;;;2.53;;
77978;SDS011;67169;50.268;8.694;2023-12-28T04:43:28;3.70;;;2.10;;
77978;SDS011;67169;50.268;8.694;2023-12-28T04:45:55;3.70;;;2.47;;
77978;SDS011;67169;50.268;8.694;2023-12-28T04:48:21;3.28;;;2.08;;
77978;SDS011;67169;50.268;8.694;2023-12-28T04:50:50;2.58;;;1.23;;
77978;SDS011;67169;50.268;8.694;2023-12-28T04:53:17;2.08;;;1.50;;
77978;SDS011;67169;50.268;8.694;2023-12-28T04:55:44;3.20;;;1.80;;
77978;SDS011;67169;50.268;8.694;2023-12-28T04:58:10;4.65;;;2.35;;
77978;SDS011;67169;50.268;8.694;2023-12-28T05:00:39;3.58;;;2.20;;
77978;SDS011;67169;50.268;8.694;2023-12-28T05:05:32;3.20;;;1.70;;
77978;SDS011;67169;50.268;8.694;2023-12-28T05:07:59;2.45;;;2.22;;
77978;SDS011;67169;50.268;8.694;2023-12-28T05:10:25;2.75;;;1.92;;
77978;SDS011;67169;50.268;8.694;2023-12-28T05:12:52;3.30;;;2.25;;
77978;SDS011;67169;50.268;8.694;2023-12-28T05:15:19;2.65;;;2.20;;
77978;SDS011;67169;50.268;8.694;2023-12-28T05:17:46;2.35;;;1.73;;
77978;SDS011;67169;50.268;8.694;2023-12-28T05:20:15;3.58;;;1.80;;
77978;SDS011;67169;50.268;8.694;2023-12-28T05:22:42;1.58;;;1.48;;
77978;SDS011;67169;50.268;8.694;2023-12-28T05:25:08;3.42;;;1.90;;
77978;SDS011;67169;50.268;8.694;2023-12-28T05:27:35;3.53;;;2.50;;
77978;SDS011;67169;50.268;8.694;2023-12-28T05:30:02;6.30;;;1.95;;
77978;SDS011;67169;50.268;8.694;2023-12-28T05:32:29;4.20;;;3.03;;
77978;SDS011;67169;50.268;8.694;2023-12-28T05:34:57;2.53;;;1.90;;
77978;SDS011;67169;50.268;8.694;2023-12-28T05:37:24;3.50;;;2.33;;
77978;SDS011;67169;50.268;8.694;2023-12-28T05:39:50;1.90;;;1.38;;
77978;SDS011;67169;50.268;8.694;2023-12-28T05:42:17;3.08;;;1.65;;
77978;SDS011;67169;50.268;8.694;2023-12-28T05:44:43;3.78;;;1.60;;
77978;SDS011;67169;50.268;8.694;2023-12-28T05:47:10;1.40;;;1.23;;
77978;SDS011;67169;50.268;8.694;2023-12-28T05:49:37;1.85;;;1.75;;
77978;SDS011;67169;50.268;8.694;2023-12-28T05:52:04;3.97;;;2.60;;
77978;SDS011;67169;50.268;8.694;2023-12-28T05:54:31;2.55;;;1.83;;
77978;SDS011;67169;50.268;8.694;2023-12-28T05:56:58;4.70;;;3.08;;
77978;SDS011;67169;50.268;8.694;2023-12-28T05:59:25;2.25;;;1.98;;
77978;SDS011;67169;50.268;8.694;2023-12-28T06:01:51;3.50;;;1.48;;
77978;SDS011;67169;50.268;8.694;2023-12-28T06:04:18;5.28;;;2.92;;
77978;SDS011;67169;50.268;8.694;2023-12-28T06:06:45;2.13;;;1.88;;
77978;SDS011;67169;50.268;8.694;2023-12-28T06:09:12;2.45;;;1.60;;
77978;SDS011;67169;50.268;8.694;2023-12-28T06:11:39;3.13;;;1.90;;
77978;SDS011;67169;50.268;8.694;2023-12-28T06:14:06;4.05;;;2.45;;
77978;SDS011;67169;50.268;8.694;2023-12-28T06:16:33;2.58;;;2.10;;
77978;SDS011;67169;50.268;8.694;2023-12-28T06:19:00;3.70;;;2.10;;
77978;SDS011;67169;50.268;8.694;2023-12-28T06:21:27;3.63;;;1.95;;
77978;SDS011;67169;50.268;8.694;2023-12-28T06:23:55;4.18;;;1.98;;
77978;SDS011;67169;50.268;8.694;2023-12-28T06:26:23;3.80;;;2.55;;
77978;SDS011;67169;50.268;8.694;2023-12-28T06:33:42;3.30;;;2.17;;
77978;SDS011;67169;50.268;8.694;2023-12-28T06:36:10;5.03;;;3.25;;
77978;SDS011;67169;50.268;8.694;2023-12-28T06:38:37;6.78;;;2.85;;
77978;SDS011;67169;50.268;8.694;2023-12-28T06:41:09;2.92;;;2.10;;
77978;SDS011;67169;50.268;8.694;2023-12-28T06:43:38;3.65;;;2.88;;
77978;SDS011;67169;50.268;8.694;2023-12-28T06:46:04;2.83;;;2.60;;
77978;SDS011;67169;50.268;8.694;2023-12-28T06:48:31;2.97;;;2.00;;
77978;SDS011;67169;50.268;8.694;2023-12-28T06:50:57;4.78;;;2.80;;
77978;SDS011;67169;50.268;8.694;2023-12-28T06:53:24;4.18;;;2.33;;
77978;SDS011;67169;50.268;8.694;2023-12-28T06:55:51;3.70;;;2.28;;
77978;SDS011;67169;50.268;8.694;2023-12-28T06:58:18;2.78;;;2.17;;
77978;SDS011;67169;50.268;8.694;2023-12-28T07:00:45;3.70;;;2.55;;
77978;SDS011;67169;50.268;8.694;2023-12-28T07:03:12;3.88;;;2.22;;
77978;SDS011;67169;50.268;8.694;2023-12-28T07:05:39;3.58;;;2.58;;
77978;SDS011;67169;50.268;8.694;2023-12-28T07:08:06;3.60;;;2.00;;
77978;SDS011;67169;50.268;8.694;2023-12-28T07:10:32;6.22;;;1.83;;
77978;SDS011;67169;50.268;8.694;2023-12-28T07:12:59;2.80;;;2.08;;
77978;SDS011;67169;50.268;8.694;2023-12-28T07:15:25;4.03;;;2.30;;
77978;SDS011;67169;50.268;8.694;2023-12-28T07:17:53;3.20;;;2.10;;
77978;SDS011;67169;50.268;8.694;2023-12-28T07:20:20;2.13;;;1.83;;
77978;SDS011;67169;50.268;8.694;2023-12-28T07:22:46;5.70;;;1.80;;
77978;SDS011;67169;50.268;8.694;2023-12-28T07:25:13;4.13;;;2.20;;
77978;SDS011;67169;50.268;8.694;2023-12-28T07:27:40;2.00;;;1.65;;
77978;SDS011;67169;50.268;8.694;2023-12-28T07:30:06;2.42;;;1.98;;
77978;SDS011;67169;50.268;8.694;2023-12-28T07:32:33;2.40;;;2.05;;
77978;SDS011;67169;50.268;8.694;2023-12-28T07:35:01;3.10;;;1.00;;
77978;SDS011;67169;50.268;8.694;2023-12-28T07:37:28;2.25;;;1.00;;
77978;SDS011;67169;50.268;8.694;2023-12-28T07:39:54;2.50;;;1.90;;
77978;SDS011;67169;50.268;8.694;2023-12-28T07:42:22;7.53;;;2.00;;
77978;SDS011;67169;50.268;8.694;2023-12-28T07:44:49;2.30;;;1.48;;
77978;SDS011;67169;50.268;8.694;2023-12-28T07:47:15;2.20;;;1.83;;
77978;SDS011;67169;50.268;8.694;2023-12-28T07:49:42;3.08;;;1.75;;
77978;SDS011;67169;50.268;8.694;2023-12-28T07:52:10;2.63;;;2.17;;
77978;SDS011;67169;50.268;8.694;2023-12-28T07:54:36;1.80;;;1.45;;
77978;SDS011;67169;50.268;8.694;2023-12-28T07:57:03;0.77;;;0.77;;
77978;SDS011;67169;50.268;8.694;2023-12-28T07:59:30;2.05;;;1.60;;
77978;SDS011;67169;50.268;8.694;2023-12-28T08:01:57;1.42;;;1.23;;
77978;SDS011;67169;50.268;8.694;2023-12-28T08:04:23;3.03;;;1.40;;
77978;SDS011;67169;50.268;8.694;2023-12-28T08:06:50;2.67;;;1.35;;
77978;SDS011;67169;50.268;8.694;2023-12-28T08:09:18;1.70;;;1.48;;
77978;SDS011;67169;50.268;8.694;2023-12-28T08:11:45;1.55;;;1.35;;
77978;SDS011;67169;50.268;8.694;2023-12-28T08:14:11;2.22;;;1.13;;
77978;SDS011;67169;50.268;8.694;2023-12-28T08:16:38;1.48;;;1.15;;
77978;SDS011;67169;50.268;8.694;2023-12-28T08:19:05;1.40;;;1.13;;
77978;SDS011;67169;50.268;8.694;2023-12-28T08:21:31;1.70;;;1.30;;
77978;SDS011;67169;50.268;8.694;2023-12-28T08:23:58;2.38;;;1.60;;
77978;SDS011;67169;50.268;8.694;2023-12-28T08:26:26;2.22;;;1.85;;
77978;SDS011;67169;50.268;8.694;2023-12-28T08:28:52;1.20;;;1.10;;
77978;SDS011;67169;50.268;8.694;2023-12-28T08:31:19;2.05;;;1.38;;
77978;SDS011;67169;50.268;8.694;2023-12-28T08:33:45;1.85;;;1.40;;
77978;SDS011;67169;50.268;8.694;2023-12-28T08:36:12;2.28;;;1.33;;
77978;SDS011;67169;50.268;8.694;2023-12-28T08:38:39;2.45;;;1.77;;
77978;SDS011;67169;50.268;8.694;2023-12-28T08:41:05;1.52;;;1.33;;
77978;SDS011;67169;50.268;8.694;2023-12-28T08:43:35;2.08;;;1.55;;
77978;SDS011;67169;50.268;8.694;2023-12-28T08:46:02;3.60;;;2.42;;
77978;SDS011;67169;50.268;8.694;2023-12-28T08:48:29;1.65;;;1.13;;
77978;SDS011;67169;50.268;8.694;2023-12-28T08:50:55;2.10;;;1.90;;
77978;SDS011;67169;50.268;8.694;2023-12-28T08:53:22;2.33;;;1.55;;
77978;SDS011;67169;50.268;8.694;2023-12-28T08:55:48;1.73;;;1.17;;
77978;SDS011;67169;50.268;8.694;2023-12-28T08:58:15;2.28;;;1.60;;
77978;SDS011;67169;50.268;8.694;2023-12-28T09:00:43;2.42;;;1.95;;
77978;SDS011;67169;50.268;8.694;2023-12-28T09:03:12;3.75;;;1.73;;
77978;SDS011;67169;50.268;8.694;2023-12-28T09:05:38;3.08;;;1.88;;
77978;SDS011;67169;50.268;8.694;2023-12-28T09:08:05;5.65;;;1.75;;
77978;SDS011;67169;50.268;8.694;2023-12-28T09:12:59;3.22;;;1.92;;
77978;SDS011;67169;50.268;8.694;2023-12-28T09:15:26;1.77;;;1.20;;
77978;SDS011;67169;50.268;8.694;2023-12-28T09:17:54;1.80;;;1.23;;
77978;SDS011;67169;50.268;8.694;2023-12-28T09:20:21;2.83;;;2.10;;
77978;SDS011;67169;50.268;8.694;2023-12-28T09:22:48;2.97;;;1.77;;
77978;SDS011;67169;50.268;8.694;2023-12-28T09:25:18;2.13;;;1.90;;
77978;SDS011;67169;50.268;8.694;2023-12-28T09:27:45;1.85;;;1.50;;
77978;SDS011;67169;50.268;8.694;2023-12-28T09:30:12;3.28;;;1.95;;
77978;SDS011;67169;50.268;8.694;2023-12-28T09:32:38;2.97;;;1.60;;
77978;SDS011;67169;50.268;8.694;2023-12-28T09:35:07;3.42;;;2.17;;
77978;SDS011;67169;50.268;8.694;2023-12-28T09:37:33;1.75;;;1.33;;
77978;SDS011;67169;50.268;8.694;2023-12-28T09:40:00;3.30;;;2.15;;
77978;SDS011;67169;50.268;8.694;2023-12-28T09:42:29;6.95;;;1.88;;
77978;SDS011;67169;50.268;8.694;2023-12-28T09:45:03;1.52;;;1.40;;
77978;SDS011;67169;50.268;8.694;2023-12-28T09:49:58;3.30;;;2.13;;
77978;SDS011;67169;50.268;8.694;2023-12-28T09:52:26;2.38;;;1.70;;
77978;SDS011;67169;50.268;8.694;2023-12-28T09:54:52;1.48;;;1.17;;
77978;SDS011;67169;50.268;8.694;2023-12-28T09:57:19;3.38;;;2.20;;
77978;SDS011;67169;50.268;8.694;2023-12-28T09:59:46;1.42;;;1.25;;
77978;SDS011;67169;50.268;8.694;2023-12-28T10:02:13;3.42;;;1.88;;
77978;SDS011;67169;50.268;8.694;2023-12-28T10:04:41;2.00;;;1.88;;
77978;SDS011;67169;50.268;8.694;2023-12-28T10:07:08;6.28;;;2.88;;
77978;SDS011;67169;50.268;8.694;2023-12-28T10:09:36;1.85;;;1.35;;
77978;SDS011;67169;50.268;8.694;2023-12-28T10:12:03;2.72;;;2.20;;
77978;SDS011;67169;50.268;8.694;2023-12-28T10:14:29;3.78;;;2.20;;
77978;SDS011;67169;50.268;8.694;2023-12-28T10:16:56;1.98;;;1.45;;
77978;SDS011;67169;50.268;8.694;2023-12-28T10:19:23;3.15;;;1.85;;
77978;SDS011;67169;50.268;8.694;2023-12-28T10:21:50;2.50;;;1.65;;
77978;SDS011;67169;50.268;8.694;2023-12-28T10:24:16;1.80;;;1.55;;
77978;SDS011;67169;50.268;8.694;2023-12-28T10:26:44;4.95;;;1.60;;
77978;SDS011;67169;50.268;8.694;2023-12-28T10:29:11;1.95;;;1.75;;
77978;SDS011;67169;50.268;8.694;2023-12-28T10:31:41;2.80;;;2.15;;
77978;SDS011;67169;50.268;8.694;2023-12-28T10:34:08;1.88;;;1.73;;
77978;SDS011;67169;50.268;8.694;2023-12-28T10:36:34;3.80;;;2.00;;
77978;SDS011;67169;50.268;8.694;2023-12-28T10:39:03;1.65;;;1.17;;
77978;SDS011;67169;50.268;8.694;2023-12-28T10:41:31;3.53;;;1.25;;
77978;SDS011;67169;50.268;8.694;2023-12-28T10:44:02;3.20;;;1.90;;
77978;SDS011;67169;50.268;8.694;2023-12-28T10:46:30;1.83;;;1.45;;
77978;SDS011;67169;50.268;8.694;2023-12-28T10:51:24;2.13;;;1.90;;
77978;SDS011;67169;50.268;8.694;2023-12-28T10:53:54;1.50;;;1.30;;
77978;SDS011;67169;50.268;8.694;2023-12-28T10:56:33;2.05;;;1.73;;
77978;SDS011;67169;50.268;8.694;2023-12-28T10:59:05;2.20;;;1.45;;
77978;SDS011;67169;50.268;8.694;2023-12-28T11:01:41;3.70;;;1.48;;
77978;SDS011;67169;50.268;8.694;2023-12-28T11:06:44;2.08;;;1.63;;
77978;SDS011;67169;50.268;8.694;2023-12-28T11:09:12;1.60;;;1.10;;
77978;SDS011;67169;50.268;8.694;2023-12-28T11:14:09;3.88;;;1.63;;
77978;SDS011;67169;50.268;8.694;2023-12-28T11:16:37;3.65;;;1.42;;
77978;SDS011;67169;50.268;8.694;2023-12-28T11:19:04;2.33;;;1.30;;
77978;SDS011;67169;50.268;8.694;2023-12-28T11:21:33;2.22;;;1.08;;
77978;SDS011;67169;50.268;8.694;2023-12-28T11:24:00;3.03;;;1.55;;
77978;SDS011;67169;50.268;8.694;2023-12-28T11:26:27;2.72;;;1.50;;
77978;SDS011;67169;50.268;8.694;2023-12-28T11:28:59;4.53;;;1.65;;
77978;SDS011;67169;50.268;8.694;2023-12-28T11:31:28;3.15;;;1.35;;
77978;SDS011;67169;50.268;8.694;2023-12-28T11:33:58;1.63;;;0.82;;
77978;SDS011;67169;50.268;8.694;2023-12-28T11:36:25;4.10;;;1.73;;
77978;SDS011;67169;50.268;8.694;2023-12-28T11:39:01;3.03;;;1.00;;
77978;SDS011;67169;50.268;8.694;2023-12-28T11:41:30;1.73;;;1.40;;
77978;SDS011;67169;50.268;8.694;2023-12-28T11:43:57;2.53;;;1.13;;
77978;SDS011;67169;50.268;8.694;2023-12-28T11:46:31;3.05;;;1.50;;
77978;SDS011;67169;50.268;8.694;2023-12-28T11:49:03;1.83;;;1.27;;
77978;SDS011;67169;50.268;8.694;2023-12-28T11:51:30;0.95;;;0.93;;
77978;SDS011;67169;50.268;8.694;2023-12-28T11:53:58;3.58;;;1.40;;
77978;SDS011;67169;50.268;8.694;2023-12-28T11:56:25;1.30;;;1.10;;
77978;SDS011;67169;50.268;8.694;2023-12-28T11:58:51;4.10;;;1.48;;
77978;SDS011;67169;50.268;8.694;2023-12-28T12:01:18;1.92;;;1.05;;
77978;SDS011;67169;50.268;8.694;2023-12-28T12:03:46;1.60;;;1.02;;
77978;SDS011;67169;50.268;8.694;2023-12-28T12:06:14;1.15;;;1.00;;
77978;SDS011;67169;50.268;8.694;2023-12-28T12:08:44;1.77;;;1.10;;
77978;SDS011;67169;50.268;8.694;2023-12-28T12:11:11;1.20;;;0.80;;
77978;SDS011;67169;50.268;8.694;2023-12-28T12:13:38;2.05;;;0.70;;
77978;SDS011;67169;50.268;8.694;2023-12-28T12:16:05;2.38;;;0.82;;
77978;SDS011;67169;50.268;8.694;2023-12-28T12:18:32;1.55;;;0.70;;
77978;SDS011;67169;50.268;8.694;2023-12-28T12:21:00;2.22;;;0.80;;
77978;SDS011;67169;50.268;8.694;2023-12-28T12:23:27;1.20;;;0.52;;
77978;SDS011;67169;50.268;8.694;2023-12-28T12:25:54;2.25;;;0.88;;
77978;SDS011;67169;50.268;8.694;2023-12-28T12:28:21;0.60;;;0.60;;
77978;SDS011;67169;50.268;8.694;2023-12-28T12:30:49;3.00;;;0.88;;
77978;SDS011;67169;50.268;8.694;2023-12-28T12:33:17;1.00;;;0.65;;
77978;SDS011;67169;50.268;8.694;2023-12-28T12:35:43;0.77;;;0.70;;
77978;SDS011;67169;50.268;8.694;2023-12-28T12:38:12;3.40;;;0.40;;
77978;SDS011;67169;50.268;8.694;2023-12-28T12:40:38;2.03;;;1.08;;
77978;SDS011;67169;50.268;8.694;2023-12-28T12:43:06;0.68;;;0.50;;
77978;SDS011;67169;50.268;8.694;2023-12-28T12:45:34;3.17;;;0.77;;
77978;SDS011;67169;50.268;8.694;2023-12-28T12:48:01;0.45;;;0.40;;
77978;SDS011;67169;50.268;8.694;2023-12-28T12:50:28;0.88;;;0.60;;
77978;SDS011;67169;50.268;8.694;2023-12-28T12:52:55;3.08;;;1.60;;
77978;SDS011;67169;50.268;8.694;2023-12-28T12:55:23;0.90;;;0.75;;
77978;SDS011;67169;50.268;8.694;2023-12-28T12:57:50;0.63;;;0.50;;
77978;SDS011;67169;50.268;8.694;2023-12-28T13:00:21;2.72;;;0.93;;
77978;SDS011;67169;50.268;8.694;2023-12-28T13:02:48;0.80;;;0.65;;
77978;SDS011;67169;50.268;8.694;2023-12-28T13:05:17;0.65;;;0.45;;
77978;SDS011;67169;50.268;8.694;2023-12-28T13:07:43;3.70;;;0.88;;
77978;SDS011;67169;50.268;8.694;2023-12-28T13:10:10;2.33;;;0.88;;
77978;SDS011;67169;50.268;8.694;2023-12-28T13:12:38;0.98;;;0.30;;
77978;SDS011;67169;50.268;8.694;2023-12-28T13:15:05;1.50;;;1.23;;
77978;SDS011;67169;50.268;8.694;2023-12-28T13:17:34;3.22;;;0.35;;
77978;SDS011;67169;50.268;8.694;2023-12-28T13:20:01;1.75;;;0.75;;
77978;SDS011;67169;50.268;8.694;2023-12-28T13:22:28;0.43;;;0.43;;
77978;SDS011;67169;50.268;8.694;2023-12-28T13:24:55;1.27;;;0.73;;
77978;SDS011;67169;50.268;8.694;2023-12-28T13:27:22;2.35;;;0.90;;
77978;SDS011;67169;50.268;8.694;2023-12-28T13:29:50;2.00;;;0.73;;
77978;SDS011;67169;50.268;8.694;2023-12-28T13:34:43;1.73;;;1.05;;
77978;SDS011;67169;50.268;8.694;2023-12-28T13:37:10;0.95;;;0.75;;
77978;SDS011;67169;50.268;8.694;2023-12-28T13:39:36;1.02;;;0.95;;
77978;SDS011;67169;50.268;8.694;2023-12-28T13:42:04;2.28;;;1.13;;
77978;SDS011;67169;50.268;8.694;2023-12-28T13:44:32;1.90;;;1.48;;
77978;SDS011;67169;50.268;8.694;2023-12-28T13:47:00;3.58;;;0.85;;
77978;SDS011;67169;50.268;8.694;2023-12-28T13:49:26;3.60;;;0.60;;
77978;SDS011;67169;50.268;8.694;2023-12-28T13:51:53;1.75;;;0.90;;
77978;SDS011;67169;50.268;8.694;2023-12-28T13:54:19;2.58;;;1.08;;
77978;SDS011;67169;50.268;8.694;2023-12-28T13:56:46;1.55;;;0.82;;
77978;SDS011;67169;50.268;8.694;2023-12-28T13:59:13;1.80;;;1.35;;
77978;SDS011;67169;50.268;8.694;2023-12-28T14:01:40;4.38;;;1.23;;
77978;SDS011;67169;50.268;8.694;2023-12-28T14:04:08;3.88;;;1.25;;
77978;SDS011;67169;50.268;8.694;2023-12-28T14:06:34;1.92;;;1.05;;
77978;SDS011;67169;50.268;8.694;2023-12-28T14:09:01;1.90;;;1.42;;
77978;SDS011;67169;50.268;8.694;2023-12-28T14:11:27;1.23;;;0.93;;
77978;SDS011;67169;50.268;8.694;2023-12-28T14:13:54;1.83;;;1.20;;
77978;SDS011;67169;50.268;8.694;2023-12-28T14:16:21;2.97;;;1.08;;
77978;SDS011;67169;50.268;8.694;2023-12-28T14:18:47;1.20;;;1.10;;
77978;SDS011;67169;50.268;8.694;2023-12-28T14:21:16;2.47;;;1.20;;
77978;SDS011;67169;50.268;8.694;2023-12-28T14:23:43;3.35;;;1.40;;
77978;SDS011;67169;50.268;8.694;2023-12-28T14:26:11;2.58;;;1.60;;
77978;SDS011;67169;50.268;8.694;2023-12-28T14:28:39;1.73;;;1.35;;
77978;SDS011;67169;50.268;8.694;2023-12-28T14:31:07;2.42;;;1.30;;
77978;SDS011;67169;50.268;8.694;2023-12-28T14:33:34;1.17;;;1.02;;
77978;SDS011;67169;50.268;8.694;2023-12-28T14:36:01;2.08;;;1.30;;
77978;SDS011;67169;50.268;8.694;2023-12-28T14:38:31;3.72;;;1.55;;
77978;SDS011;67169;50.268;8.694;2023-12-28T14:40:58;1.75;;;0.90;;
77978;SDS011;67169;50.268;8.694;2023-12-28T14:43:25;1.17;;;0.98;;
77978;SDS011;67169;50.268;8.694;2023-12-28T14:45:51;2.05;;;0.75;;
77978;SDS011;67169;50.268;8.694;2023-12-28T14:48:18;1.10;;;0.90;;
77978;SDS011;67169;50.268;8.694;2023-12-28T14:50:44;1.60;;;1.10;;
77978;SDS011;67169;50.268;8.694;2023-12-28T14:53:11;1.25;;;0.68;;
77978;SDS011;67169;50.268;8.694;2023-12-28T14:55:39;0.70;;;0.70;;
77978;SDS011;67169;50.268;8.694;2023-12-28T14:58:05;1.60;;;0.93;;
77978;SDS011;67169;50.268;8.694;2023-12-28T15:00:32;1.60;;;0.82;;
77978;SDS011;67169;50.268;8.694;2023-12-28T15:02:59;0.60;;;0.60;;
77978;SDS011;67169;50.268;8.694;2023-12-28T15:05:25;0.75;;;0.70;;
77978;SDS011;67169;50.268;8.694;2023-12-28T15:07:52;1.05;;;0.70;;
77978;SDS011;67169;50.268;8.694;2023-12-28T15:10:19;1.13;;;0.55;;